sensor_id;sensor_type;location;lat;lon;timestamp;temperature;humidity
56332;DHT22;42237;53.340;6.812;2022-12-07T00:01:20;3.20;99.90
56332;DHT22;42237;53.340;6.812;2022-12-07T00:03:47;3.20;99.90
56332;DHT22;42237;53.340;6.812;2022-12-07T00:06:14;4.00;99.90
56332;DHT22;42237;53.340;6.812;2022-12-07T00:08:41;4.20;99.90
56332;DHT22;42237;53.340;6.812;2022-12-07T00:11:12;3.60;99.90
56332;DHT22;42237;53.340;6.812;2022-12-07T00:13:39;3.30;99.90
56332;DHT22;42237;53.340;6.812;2022-12-07T00:16:11;3.50;99.90
56332;DHT22;42237;53.340;6.812;2022-12-07T00:18:38;3.50;99.90
56332;DHT22;42237;53.340;6.812;2022-12-07T00:21:06;3.60;99.90
56332;DHT22;42237;53.340;6.812;2022-12-07T00:23:32;3.70;99.90
56332;DHT22;42237;53.340;6.812;2022-12-07T00:26:10;4.00;99.90
56332;DHT22;42237;53.340;6.812;2022-12-07T00:28:35;3.70;99.90
56332;DHT22;42237;53.340;6.812;2022-12-07T00:31:06;4.00;99.90
56332;DHT22;42237;53.340;6.812;2022-12-07T00:33:33;4.30;99.90
56332;DHT22;42237;53.340;6.812;2022-12-07T00:36:00;4.00;99.90
56332;DHT22;42237;53.340;6.812;2022-12-07T00:38:29;4.10;99.90
56332;DHT22;42237;53.340;6.812;2022-12-07T00:41:13;4.30;99.90
56332;DHT22;42237;53.340;6.812;2022-12-07T00:43:40;4.20;99.90
56332;DHT22;42237;53.340;6.812;2022-12-07T00:46:09;4.10;99.90
56332;DHT22;42237;53.340;6.812;2022-12-07T00:48:35;4.10;99.90
56332;DHT22;42237;53.340;6.812;2022-12-07T00:51:01;4.10;99.90
56332;DHT22;42237;53.340;6.812;2022-12-07T00:53:27;4.10;99.90
56332;DHT22;42237;53.340;6.812;2022-12-07T00:55:53;4.40;99.90
56332;DHT22;42237;53.340;6.812;2022-12-07T00:58:19;4.90;99.90
56332;DHT22;42237;53.340;6.812;2022-12-07T01:00:45;4.10;99.90
56332;DHT22;42237;53.340;6.812;2022-12-07T01:03:13;4.20;99.90
56332;DHT22;42237;53.340;6.812;2022-12-07T01:05:39;4.50;99.90
56332;DHT22;42237;53.340;6.812;2022-12-07T01:08:05;4.40;99.90
56332;DHT22;42237;53.340;6.812;2022-12-07T01:10:32;4.40;99.90
56332;DHT22;42237;53.340;6.812;2022-12-07T01:12:58;4.50;99.90
56332;DHT22;42237;53.340;6.812;2022-12-07T01:15:25;4.50;99.90
56332;DHT22;42237;53.340;6.812;2022-12-07T01:17:51;4.50;99.90
56332;DHT22;42237;53.340;6.812;2022-12-07T01:20:17;4.50;99.90
56332;DHT22;42237;53.340;6.812;2022-12-07T01:22:43;5.00;99.90
56332;DHT22;42237;53.340;6.812;2022-12-07T01:25:10;5.00;99.90
56332;DHT22;42237;53.340;6.812;2022-12-07T01:27:36;4.50;99.90
56332;DHT22;42237;53.340;6.812;2022-12-07T01:30:04;4.40;99.90
56332;DHT22;42237;53.340;6.812;2022-12-07T01:32:30;4.40;99.90
56332;DHT22;42237;53.340;6.812;2022-12-07T01:34:56;4.40;99.90
56332;DHT22;42237;53.340;6.812;2022-12-07T01:37:21;4.50;99.90
56332;DHT22;42237;53.340;6.812;2022-12-07T01:39:51;4.40;99.90
56332;DHT22;42237;53.340;6.812;2022-12-07T01:42:18;4.70;99.90
56332;DHT22;42237;53.340;6.812;2022-12-07T01:47:48;4.40;99.90
56332;DHT22;42237;53.340;6.812;2022-12-07T01:50:15;4.40;99.90
56332;DHT22;42237;53.340;6.812;2022-12-07T01:52:41;4.40;99.90
56332;DHT22;42237;53.340;6.812;2022-12-07T01:55:12;5.30;99.90
56332;DHT22;42237;53.340;6.812;2022-12-07T01:57:42;4.60;99.90
56332;DHT22;42237;53.340;6.812;2022-12-07T02:00:10;5.00;99.90
56332;DHT22;42237;53.340;6.812;2022-12-07T02:03:08;4.50;99.90
56332;DHT22;42237;53.340;6.812;2022-12-07T02:05:37;4.60;99.90
56332;DHT22;42237;53.340;6.812;2022-12-07T02:08:04;4.40;99.90
56332;DHT22;42237;53.340;6.812;2022-12-07T02:10:31;4.40;99.90
56332;DHT22;42237;53.340;6.812;2022-12-07T02:13:11;4.40;99.90
56332;DHT22;42237;53.340;6.812;2022-12-07T02:15:45;4.30;99.90
56332;DHT22;42237;53.340;6.812;2022-12-07T02:21:26;4.20;99.90
56332;DHT22;42237;53.340;6.812;2022-12-07T02:29:25;3.90;99.90
56332;DHT22;42237;53.340;6.812;2022-12-07T02:32:46;4.10;99.90
56332;DHT22;42237;53.340;6.812;2022-12-07T02:34:51;4.30;99.90
56332;DHT22;42237;53.340;6.812;2022-12-07T02:37:39;3.70;99.90
56332;DHT22;42237;53.340;6.812;2022-12-07T02:45:53;3.80;99.90
56332;DHT22;42237;53.340;6.812;2022-12-07T02:48:21;3.90;99.90
56332;DHT22;42237;53.340;6.812;2022-12-07T02:50:52;4.00;99.90
56332;DHT22;42237;53.340;6.812;2022-12-07T02:53:35;4.40;99.90
56332;DHT22;42237;53.340;6.812;2022-12-07T02:56:27;4.10;99.90
56332;DHT22;42237;53.340;6.812;2022-12-07T02:59:25;4.20;99.90
56332;DHT22;42237;53.340;6.812;2022-12-07T03:07:33;4.20;99.90
56332;DHT22;42237;53.340;6.812;2022-12-07T03:12:37;4.20;99.90
56332;DHT22;42237;53.340;6.812;2022-12-07T03:15:58;4.10;99.90
56332;DHT22;42237;53.340;6.812;2022-12-07T03:18:19;4.10;99.90
56332;DHT22;42237;53.340;6.812;2022-12-07T03:20:48;4.60;99.90
56332;DHT22;42237;53.340;6.812;2022-12-07T03:23:17;4.00;99.90
56332;DHT22;42237;53.340;6.812;2022-12-07T03:25:47;4.00;99.90
56332;DHT22;42237;53.340;6.812;2022-12-07T03:28:17;4.00;99.90
56332;DHT22;42237;53.340;6.812;2022-12-07T03:30:51;3.90;99.90
56332;DHT22;42237;53.340;6.812;2022-12-07T03:34:04;3.90;99.90
56332;DHT22;42237;53.340;6.812;2022-12-07T03:36:32;3.90;99.90
56332;DHT22;42237;53.340;6.812;2022-12-07T03:39:14;4.00;99.90
56332;DHT22;42237;53.340;6.812;2022-12-07T03:41:42;4.00;99.90
56332;DHT22;42237;53.340;6.812;2022-12-07T03:44:08;4.10;99.90
56332;DHT22;42237;53.340;6.812;2022-12-07T03:49:14;4.20;99.90
56332;DHT22;42237;53.340;6.812;2022-12-07T03:51:55;4.20;99.90
56332;DHT22;42237;53.340;6.812;2022-12-07T03:54:46;4.20;99.90
56332;DHT22;42237;53.340;6.812;2022-12-07T03:57:13;4.10;99.90
56332;DHT22;42237;53.340;6.812;2022-12-07T03:59:39;4.10;99.90
56332;DHT22;42237;53.340;6.812;2022-12-07T04:02:07;4.80;99.90
56332;DHT22;42237;53.340;6.812;2022-12-07T04:04:33;4.30;99.90
56332;DHT22;42237;53.340;6.812;2022-12-07T04:06:59;3.90;99.90
56332;DHT22;42237;53.340;6.812;2022-12-07T04:09:25;4.10;99.90
56332;DHT22;42237;53.340;6.812;2022-12-07T04:11:51;3.90;99.90
56332;DHT22;42237;53.340;6.812;2022-12-07T04:14:17;4.20;99.90
56332;DHT22;42237;53.340;6.812;2022-12-07T04:16:54;3.70;99.90
56332;DHT22;42237;53.340;6.812;2022-12-07T04:19:26;3.60;99.90
56332;DHT22;42237;53.340;6.812;2022-12-07T04:21:53;3.60;99.90
56332;DHT22;42237;53.340;6.812;2022-12-07T04:24:18;4.20;99.90
56332;DHT22;42237;53.340;6.812;2022-12-07T04:26:45;3.60;99.90
56332;DHT22;42237;53.340;6.812;2022-12-07T04:29:11;3.60;99.90
56332;DHT22;42237;53.340;6.812;2022-12-07T04:31:37;3.70;99.90
56332;DHT22;42237;53.340;6.812;2022-12-07T04:34:04;3.50;99.90
56332;DHT22;42237;53.340;6.812;2022-12-07T04:36:30;3.50;99.90
56332;DHT22;42237;53.340;6.812;2022-12-07T04:38:56;4.00;99.90
56332;DHT22;42237;53.340;6.812;2022-12-07T04:41:23;3.60;99.90
56332;DHT22;42237;53.340;6.812;2022-12-07T04:44:01;3.60;99.90
56332;DHT22;42237;53.340;6.812;2022-12-07T04:46:29;3.70;99.90
56332;DHT22;42237;53.340;6.812;2022-12-07T04:48:56;3.70;99.90
56332;DHT22;42237;53.340;6.812;2022-12-07T04:51:27;4.40;99.90
56332;DHT22;42237;53.340;6.812;2022-12-07T04:53:54;3.80;99.90
56332;DHT22;42237;53.340;6.812;2022-12-07T04:56:20;3.80;99.90
56332;DHT22;42237;53.340;6.812;2022-12-07T04:58:47;3.90;99.90
56332;DHT22;42237;53.340;6.812;2022-12-07T05:01:15;4.10;99.90
56332;DHT22;42237;53.340;6.812;2022-12-07T05:03:41;3.70;99.90
56332;DHT22;42237;53.340;6.812;2022-12-07T05:06:07;3.80;99.90
56332;DHT22;42237;53.340;6.812;2022-12-07T05:08:34;3.60;99.90
56332;DHT22;42237;53.340;6.812;2022-12-07T05:11:00;3.60;99.90
56332;DHT22;42237;53.340;6.812;2022-12-07T05:13:27;3.60;99.90
56332;DHT22;42237;53.340;6.812;2022-12-07T05:15:52;3.60;99.90
56332;DHT22;42237;53.340;6.812;2022-12-07T05:18:18;3.60;99.90
56332;DHT22;42237;53.340;6.812;2022-12-07T05:20:44;3.50;99.90
56332;DHT22;42237;53.340;6.812;2022-12-07T05:23:10;3.60;99.90
56332;DHT22;42237;53.340;6.812;2022-12-07T05:25:36;3.40;99.90
56332;DHT22;42237;53.340;6.812;2022-12-07T05:28:02;3.80;99.90
56332;DHT22;42237;53.340;6.812;2022-12-07T05:30:28;3.30;99.90
56332;DHT22;42237;53.340;6.812;2022-12-07T05:32:54;3.20;99.90
56332;DHT22;42237;53.340;6.812;2022-12-07T05:35:20;3.20;99.90
56332;DHT22;42237;53.340;6.812;2022-12-07T05:37:45;3.70;99.90
56332;DHT22;42237;53.340;6.812;2022-12-07T05:40:13;3.70;99.90
56332;DHT22;42237;53.340;6.812;2022-12-07T05:42:40;3.20;99.90
56332;DHT22;42237;53.340;6.812;2022-12-07T05:45:07;3.20;99.90
56332;DHT22;42237;53.340;6.812;2022-12-07T05:47:33;3.20;99.90
56332;DHT22;42237;53.340;6.812;2022-12-07T05:49:58;4.20;99.90
56332;DHT22;42237;53.340;6.812;2022-12-07T05:52:24;3.80;99.90
56332;DHT22;42237;53.340;6.812;2022-12-07T05:54:50;3.20;99.90
56332;DHT22;42237;53.340;6.812;2022-12-07T05:57:16;3.10;99.90
56332;DHT22;42237;53.340;6.812;2022-12-07T05:59:42;3.70;99.90
56332;DHT22;42237;53.340;6.812;2022-12-07T06:02:13;3.50;99.90
56332;DHT22;42237;53.340;6.812;2022-12-07T06:04:44;3.80;99.90
56332;DHT22;42237;53.340;6.812;2022-12-07T06:07:16;2.80;99.90
56332;DHT22;42237;53.340;6.812;2022-12-07T06:09:42;2.60;99.90
56332;DHT22;42237;53.340;6.812;2022-12-07T06:12:26;4.20;99.90
56332;DHT22;42237;53.340;6.812;2022-12-07T06:15:07;3.00;99.90
56332;DHT22;42237;53.340;6.812;2022-12-07T06:17:35;3.10;99.90
56332;DHT22;42237;53.340;6.812;2022-12-07T06:20:09;3.50;99.90
56332;DHT22;42237;53.340;6.812;2022-12-07T06:22:46;3.20;99.90
56332;DHT22;42237;53.340;6.812;2022-12-07T06:25:17;3.80;99.90
56332;DHT22;42237;53.340;6.812;2022-12-07T06:28:10;2.40;99.90
56332;DHT22;42237;53.340;6.812;2022-12-07T06:30:41;3.20;99.90
56332;DHT22;42237;53.340;6.812;2022-12-07T06:33:22;3.20;99.90
56332;DHT22;42237;53.340;6.812;2022-12-07T06:35:50;3.20;99.90
56332;DHT22;42237;53.340;6.812;2022-12-07T06:38:20;3.50;99.90
56332;DHT22;42237;53.340;6.812;2022-12-07T06:41:06;3.20;99.90
56332;DHT22;42237;53.340;6.812;2022-12-07T06:43:40;3.20;99.90
56332;DHT22;42237;53.340;6.812;2022-12-07T06:46:18;3.60;99.90
56332;DHT22;42237;53.340;6.812;2022-12-07T06:48:47;3.80;99.90
56332;DHT22;42237;53.340;6.812;2022-12-07T06:51:19;3.20;99.90
56332;DHT22;42237;53.340;6.812;2022-12-07T06:54:00;3.20;99.90
56332;DHT22;42237;53.340;6.812;2022-12-07T06:56:35;3.50;99.90
56332;DHT22;42237;53.340;6.812;2022-12-07T06:59:07;3.00;99.90
56332;DHT22;42237;53.340;6.812;2022-12-07T07:01:46;3.20;99.90
56332;DHT22;42237;53.340;6.812;2022-12-07T07:04:20;2.90;99.90
56332;DHT22;42237;53.340;6.812;2022-12-07T07:06:56;3.40;99.90
56332;DHT22;42237;53.340;6.812;2022-12-07T07:09:47;2.70;99.90
56332;DHT22;42237;53.340;6.812;2022-12-07T07:12:24;2.20;99.90
56332;DHT22;42237;53.340;6.812;2022-12-07T07:14:52;2.70;99.90
56332;DHT22;42237;53.340;6.812;2022-12-07T07:17:49;2.60;99.90
56332;DHT22;42237;53.340;6.812;2022-12-07T07:20:37;2.60;99.90
56332;DHT22;42237;53.340;6.812;2022-12-07T07:23:15;3.60;99.90
56332;DHT22;42237;53.340;6.812;2022-12-07T07:25:58;3.40;99.90
56332;DHT22;42237;53.340;6.812;2022-12-07T07:28:39;2.40;99.90
56332;DHT22;42237;53.340;6.812;2022-12-07T07:31:48;2.30;99.90
56332;DHT22;42237;53.340;6.812;2022-12-07T07:34:25;3.50;99.90
56332;DHT22;42237;53.340;6.812;2022-12-07T07:37:11;2.40;99.90
56332;DHT22;42237;53.340;6.812;2022-12-07T07:39:38;2.80;99.90
56332;DHT22;42237;53.340;6.812;2022-12-07T07:42:09;3.70;99.90
56332;DHT22;42237;53.340;6.812;2022-12-07T07:44:39;3.90;99.90
56332;DHT22;42237;53.340;6.812;2022-12-07T07:47:09;3.80;99.90
56332;DHT22;42237;53.340;6.812;2022-12-07T07:49:34;3.90;99.90
56332;DHT22;42237;53.340;6.812;2022-12-07T07:52:00;3.90;99.90
56332;DHT22;42237;53.340;6.812;2022-12-07T07:54:26;2.90;99.90
56332;DHT22;42237;53.340;6.812;2022-12-07T07:56:52;3.00;99.90
56332;DHT22;42237;53.340;6.812;2022-12-07T07:59:21;3.50;99.90
56332;DHT22;42237;53.340;6.812;2022-12-07T08:02:15;3.10;99.90
56332;DHT22;42237;53.340;6.812;2022-12-07T08:05:01;3.20;99.90
56332;DHT22;42237;53.340;6.812;2022-12-07T08:07:40;3.80;99.90
56332;DHT22;42237;53.340;6.812;2022-12-07T08:10:15;4.20;99.90
56332;DHT22;42237;53.340;6.812;2022-12-07T08:12:45;3.30;99.90
56332;DHT22;42237;53.340;6.812;2022-12-07T08:15:53;4.50;99.90
56332;DHT22;42237;53.340;6.812;2022-12-07T08:18:42;3.40;99.90
56332;DHT22;42237;53.340;6.812;2022-12-07T08:21:26;4.30;99.90
56332;DHT22;42237;53.340;6.812;2022-12-07T08:24:12;3.50;99.90
56332;DHT22;42237;53.340;6.812;2022-12-07T08:26:48;3.60;99.90
56332;DHT22;42237;53.340;6.812;2022-12-07T08:29:19;4.10;99.90
56332;DHT22;42237;53.340;6.812;2022-12-07T08:31:58;4.50;99.90
56332;DHT22;42237;53.340;6.812;2022-12-07T08:34:38;3.70;99.90
56332;DHT22;42237;53.340;6.812;2022-12-07T08:37:06;3.90;99.90
56332;DHT22;42237;53.340;6.812;2022-12-07T08:39:32;3.90;99.90
56332;DHT22;42237;53.340;6.812;2022-12-07T08:41:58;4.70;99.90
56332;DHT22;42237;53.340;6.812;2022-12-07T08:44:23;5.00;99.90
56332;DHT22;42237;53.340;6.812;2022-12-07T08:46:56;4.10;99.90
56332;DHT22;42237;53.340;6.812;2022-12-07T08:49:38;4.10;99.90
56332;DHT22;42237;53.340;6.812;2022-12-07T08:52:07;3.70;99.90
56332;DHT22;42237;53.340;6.812;2022-12-07T08:54:36;4.70;99.90
56332;DHT22;42237;53.340;6.812;2022-12-07T08:57:32;4.10;99.90
56332;DHT22;42237;53.340;6.812;2022-12-07T09:00:18;4.20;99.90
56332;DHT22;42237;53.340;6.812;2022-12-07T09:02:46;4.20;99.90
56332;DHT22;42237;53.340;6.812;2022-12-07T09:05:18;4.20;99.90
56332;DHT22;42237;53.340;6.812;2022-12-07T09:07:47;4.20;99.90
56332;DHT22;42237;53.340;6.812;2022-12-07T09:10:14;4.30;99.90
56332;DHT22;42237;53.340;6.812;2022-12-07T09:12:39;4.40;99.90
56332;DHT22;42237;53.340;6.812;2022-12-07T09:15:05;5.60;99.90
56332;DHT22;42237;53.340;6.812;2022-12-07T09:17:35;4.50;99.90
56332;DHT22;42237;53.340;6.812;2022-12-07T09:20:03;4.70;99.90
56332;DHT22;42237;53.340;6.812;2022-12-07T09:22:32;4.70;99.90
56332;DHT22;42237;53.340;6.812;2022-12-07T09:24:58;4.80;99.90
56332;DHT22;42237;53.340;6.812;2022-12-07T09:27:37;4.70;99.90
56332;DHT22;42237;53.340;6.812;2022-12-07T09:30:04;5.40;99.90
56332;DHT22;42237;53.340;6.812;2022-12-07T09:32:32;5.00;99.90
56332;DHT22;42237;53.340;6.812;2022-12-07T09:35:03;5.10;99.90
56332;DHT22;42237;53.340;6.812;2022-12-07T09:37:39;5.20;99.90
56332;DHT22;42237;53.340;6.812;2022-12-07T09:40:16;6.20;99.90
56332;DHT22;42237;53.340;6.812;2022-12-07T09:42:51;5.20;99.90
56332;DHT22;42237;53.340;6.812;2022-12-07T09:45:22;5.30;99.90
56332;DHT22;42237;53.340;6.812;2022-12-07T09:47:52;5.60;99.90
56332;DHT22;42237;53.340;6.812;2022-12-07T09:50:27;5.30;99.90
56332;DHT22;42237;53.340;6.812;2022-12-07T09:53:07;5.40;99.90
56332;DHT22;42237;53.340;6.812;2022-12-07T09:55:33;5.40;99.90
56332;DHT22;42237;53.340;6.812;2022-12-07T09:58:00;5.40;99.90
56332;DHT22;42237;53.340;6.812;2022-12-07T10:00:26;5.50;99.90
56332;DHT22;42237;53.340;6.812;2022-12-07T10:03:00;5.50;99.90
56332;DHT22;42237;53.340;6.812;2022-12-07T10:05:38;5.60;99.90
56332;DHT22;42237;53.340;6.812;2022-12-07T10:08:08;5.60;99.90
56332;DHT22;42237;53.340;6.812;2022-12-07T10:10:38;5.50;99.90
56332;DHT22;42237;53.340;6.812;2022-12-07T10:13:09;5.50;99.90
56332;DHT22;42237;53.340;6.812;2022-12-07T10:15:55;5.50;99.90
56332;DHT22;42237;53.340;6.812;2022-12-07T10:18:33;5.50;99.90
56332;DHT22;42237;53.340;6.812;2022-12-07T10:21:20;5.50;99.90
56332;DHT22;42237;53.340;6.812;2022-12-07T10:24:15;5.50;99.90
56332;DHT22;42237;53.340;6.812;2022-12-07T10:29:23;5.40;99.90
56332;DHT22;42237;53.340;6.812;2022-12-07T10:32:01;5.60;99.90
56332;DHT22;42237;53.340;6.812;2022-12-07T10:34:36;5.30;99.90
56332;DHT22;42237;53.340;6.812;2022-12-07T10:42:31;5.50;99.90
56332;DHT22;42237;53.340;6.812;2022-12-07T10:53:53;5.70;99.90
56332;DHT22;42237;53.340;6.812;2022-12-07T10:58:57;5.70;99.90
56332;DHT22;42237;53.340;6.812;2022-12-07T11:04:31;5.80;99.90
56332;DHT22;42237;53.340;6.812;2022-12-07T11:07:11;5.80;99.90
56332;DHT22;42237;53.340;6.812;2022-12-07T11:17:41;5.70;99.90
56332;DHT22;42237;53.340;6.812;2022-12-07T11:28:31;5.60;99.90
56332;DHT22;42237;53.340;6.812;2022-12-07T11:31:22;5.60;99.90
56332;DHT22;42237;53.340;6.812;2022-12-07T11:36:51;5.60;99.90
56332;DHT22;42237;53.340;6.812;2022-12-07T11:41:55;5.80;99.90
56332;DHT22;42237;53.340;6.812;2022-12-07T11:55:19;6.10;99.90
56332;DHT22;42237;53.340;6.812;2022-12-07T11:58:00;6.10;99.90
56332;DHT22;42237;53.340;6.812;2022-12-07T12:00:46;5.80;99.90
56332;DHT22;42237;53.340;6.812;2022-12-07T12:03:31;6.10;99.90
56332;DHT22;42237;53.340;6.812;2022-12-07T12:06:29;6.10;99.90
56332;DHT22;42237;53.340;6.812;2022-12-07T12:09:32;6.10;99.90
56332;DHT22;42237;53.340;6.812;2022-12-07T12:12:21;5.70;99.90
56332;DHT22;42237;53.340;6.812;2022-12-07T12:18:00;6.40;99.90
56332;DHT22;42237;53.340;6.812;2022-12-07T12:20:47;6.10;99.90
56332;DHT22;42237;53.340;6.812;2022-12-07T12:23:27;6.20;99.90
56332;DHT22;42237;53.340;6.812;2022-12-07T12:26:00;6.20;99.90
56332;DHT22;42237;53.340;6.812;2022-12-07T12:28:41;6.30;99.90
56332;DHT22;42237;53.340;6.812;2022-12-07T12:33:57;6.70;99.90
56332;DHT22;42237;53.340;6.812;2022-12-07T12:39:16;6.30;99.90
56332;DHT22;42237;53.340;6.812;2022-12-07T12:47:03;6.30;99.90
56332;DHT22;42237;53.340;6.812;2022-12-07T12:49:47;6.40;99.90
56332;DHT22;42237;53.340;6.812;2022-12-07T12:52:49;6.40;99.90
56332;DHT22;42237;53.340;6.812;2022-12-07T12:55:20;6.90;99.90
56332;DHT22;42237;53.340;6.812;2022-12-07T13:03:52;6.50;99.90
56332;DHT22;42237;53.340;6.812;2022-12-07T13:06:34;6.40;99.90
56332;DHT22;42237;53.340;6.812;2022-12-07T13:09:01;6.40;99.90
56332;DHT22;42237;53.340;6.812;2022-12-07T13:11:37;6.40;99.90
56332;DHT22;42237;53.340;6.812;2022-12-07T13:17:11;6.40;99.90
56332;DHT22;42237;53.340;6.812;2022-12-07T13:28:26;6.10;99.90
56332;DHT22;42237;53.340;6.812;2022-12-07T13:31:30;6.00;99.90
56332;DHT22;42237;53.340;6.812;2022-12-07T13:34:00;5.50;99.90
56332;DHT22;42237;53.340;6.812;2022-12-07T13:36:38;5.50;99.90
56332;DHT22;42237;53.340;6.812;2022-12-07T13:39:18;5.30;99.90
56332;DHT22;42237;53.340;6.812;2022-12-07T13:41:48;5.20;99.90
56332;DHT22;42237;53.340;6.812;2022-12-07T13:44:17;5.10;99.90
56332;DHT22;42237;53.340;6.812;2022-12-07T13:47:05;5.20;99.90
56332;DHT22;42237;53.340;6.812;2022-12-07T13:49:50;5.20;99.90
56332;DHT22;42237;53.340;6.812;2022-12-07T13:52:19;5.00;99.90
56332;DHT22;42237;53.340;6.812;2022-12-07T13:55:14;5.50;99.90
56332;DHT22;42237;53.340;6.812;2022-12-07T13:57:49;4.90;99.90
56332;DHT22;42237;53.340;6.812;2022-12-07T14:00:25;4.50;99.90
56332;DHT22;42237;53.340;6.812;2022-12-07T14:03:00;4.80;99.90
56332;DHT22;42237;53.340;6.812;2022-12-07T14:05:35;4.70;99.90
56332;DHT22;42237;53.340;6.812;2022-12-07T14:08:06;4.70;99.90
56332;DHT22;42237;53.340;6.812;2022-12-07T14:13:44;4.50;99.90
56332;DHT22;42237;53.340;6.812;2022-12-07T14:18:55;4.40;99.90
56332;DHT22;42237;53.340;6.812;2022-12-07T14:21:24;4.40;99.90
56332;DHT22;42237;53.340;6.812;2022-12-07T14:26:39;5.00;99.90
56332;DHT22;42237;53.340;6.812;2022-12-07T14:31:54;4.20;99.90
56332;DHT22;42237;53.340;6.812;2022-12-07T14:34:20;4.20;99.90
56332;DHT22;42237;53.340;6.812;2022-12-07T14:36:46;4.80;99.90
56332;DHT22;42237;53.340;6.812;2022-12-07T14:39:14;4.80;99.90
56332;DHT22;42237;53.340;6.812;2022-12-07T14:41:51;4.30;99.90
56332;DHT22;42237;53.340;6.812;2022-12-07T14:44:26;4.30;99.90
56332;DHT22;42237;53.340;6.812;2022-12-07T14:46:54;4.30;99.90
56332;DHT22;42237;53.340;6.812;2022-12-07T14:49:20;5.10;99.90
56332;DHT22;42237;53.340;6.812;2022-12-07T14:51:47;4.20;99.90
56332;DHT22;42237;53.340;6.812;2022-12-07T14:54:17;5.00;99.90
56332;DHT22;42237;53.340;6.812;2022-12-07T14:56:46;4.00;99.90
56332;DHT22;42237;53.340;6.812;2022-12-07T14:59:17;4.20;99.90
56332;DHT22;42237;53.340;6.812;2022-12-07T15:02:03;4.10;99.90
56332;DHT22;42237;53.340;6.812;2022-12-07T15:04:32;4.10;99.90
56332;DHT22;42237;53.340;6.812;2022-12-07T15:07:00;4.80;99.90
56332;DHT22;42237;53.340;6.812;2022-12-07T15:09:26;4.00;99.90
56332;DHT22;42237;53.340;6.812;2022-12-07T15:11:52;4.80;99.90
56332;DHT22;42237;53.340;6.812;2022-12-07T15:14:20;4.00;99.90
56332;DHT22;42237;53.340;6.812;2022-12-07T15:16:46;3.90;99.90
56332;DHT22;42237;53.340;6.812;2022-12-07T15:19:17;3.90;99.90
56332;DHT22;42237;53.340;6.812;2022-12-07T15:21:48;3.80;99.90
56332;DHT22;42237;53.340;6.812;2022-12-07T15:24:14;3.80;99.90
56332;DHT22;42237;53.340;6.812;2022-12-07T15:26:40;4.80;99.90
56332;DHT22;42237;53.340;6.812;2022-12-07T15:29:06;3.80;99.90
56332;DHT22;42237;53.340;6.812;2022-12-07T15:31:33;4.10;99.90
56332;DHT22;42237;53.340;6.812;2022-12-07T15:33:59;4.50;99.90
56332;DHT22;42237;53.340;6.812;2022-12-07T15:36:32;3.50;99.90
56332;DHT22;42237;53.340;6.812;2022-12-07T15:38:58;3.50;99.90
56332;DHT22;42237;53.340;6.812;2022-12-07T15:41:24;4.30;99.90
56332;DHT22;42237;53.340;6.812;2022-12-07T15:43:50;3.40;99.90
56332;DHT22;42237;53.340;6.812;2022-12-07T15:46:36;4.30;99.90
56332;DHT22;42237;53.340;6.812;2022-12-07T15:49:04;4.00;99.90
56332;DHT22;42237;53.340;6.812;2022-12-07T15:51:30;3.10;99.90
56332;DHT22;42237;53.340;6.812;2022-12-07T15:53:57;3.10;99.90
56332;DHT22;42237;53.340;6.812;2022-12-07T15:56:24;3.10;99.90
56332;DHT22;42237;53.340;6.812;2022-12-07T15:58:52;3.10;99.90
56332;DHT22;42237;53.340;6.812;2022-12-07T16:01:18;3.00;99.90
56332;DHT22;42237;53.340;6.812;2022-12-07T16:03:45;3.60;99.90
56332;DHT22;42237;53.340;6.812;2022-12-07T16:06:12;4.00;99.90
56332;DHT22;42237;53.340;6.812;2022-12-07T16:08:44;3.80;99.90
56332;DHT22;42237;53.340;6.812;2022-12-07T16:11:11;2.90;99.90
56332;DHT22;42237;53.340;6.812;2022-12-07T16:13:37;2.90;99.90
56332;DHT22;42237;53.340;6.812;2022-12-07T16:16:07;3.40;99.90
56332;DHT22;42237;53.340;6.812;2022-12-07T16:18:35;2.10;99.90
56332;DHT22;42237;53.340;6.812;2022-12-07T16:21:03;3.90;99.90
56332;DHT22;42237;53.340;6.812;2022-12-07T16:23:37;2.70;99.90
56332;DHT22;42237;53.340;6.812;2022-12-07T16:26:17;3.70;99.90
56332;DHT22;42237;53.340;6.812;2022-12-07T16:28:43;2.50;99.90
56332;DHT22;42237;53.340;6.812;2022-12-07T16:31:13;3.60;99.90
56332;DHT22;42237;53.340;6.812;2022-12-07T16:33:40;3.70;99.90
56332;DHT22;42237;53.340;6.812;2022-12-07T16:36:08;2.50;99.90
56332;DHT22;42237;53.340;6.812;2022-12-07T16:38:36;2.40;99.90
56332;DHT22;42237;53.340;6.812;2022-12-07T16:41:02;2.40;99.90
56332;DHT22;42237;53.340;6.812;2022-12-07T16:43:27;2.40;99.90
56332;DHT22;42237;53.340;6.812;2022-12-07T16:45:53;2.40;99.90
56332;DHT22;42237;53.340;6.812;2022-12-07T16:48:19;2.50;99.90
56332;DHT22;42237;53.340;6.812;2022-12-07T16:50:45;2.60;99.90
56332;DHT22;42237;53.340;6.812;2022-12-07T16:53:12;2.30;99.90
56332;DHT22;42237;53.340;6.812;2022-12-07T16:55:43;2.30;99.90
56332;DHT22;42237;53.340;6.812;2022-12-07T16:58:09;2.40;99.90
56332;DHT22;42237;53.340;6.812;2022-12-07T17:00:36;2.30;99.90
56332;DHT22;42237;53.340;6.812;2022-12-07T17:03:05;2.40;99.90
56332;DHT22;42237;53.340;6.812;2022-12-07T17:05:37;3.30;99.90
56332;DHT22;42237;53.340;6.812;2022-12-07T17:08:02;2.90;99.90
56332;DHT22;42237;53.340;6.812;2022-12-07T17:10:29;2.30;99.90
56332;DHT22;42237;53.340;6.812;2022-12-07T17:13:02;2.30;99.90
56332;DHT22;42237;53.340;6.812;2022-12-07T17:16:04;2.30;99.90
56332;DHT22;42237;53.340;6.812;2022-12-07T17:18:34;2.40;99.90
56332;DHT22;42237;53.340;6.812;2022-12-07T17:21:06;1.80;99.90
56332;DHT22;42237;53.340;6.812;2022-12-07T17:23:35;2.30;99.90
56332;DHT22;42237;53.340;6.812;2022-12-07T17:26:15;3.50;99.90
56332;DHT22;42237;53.340;6.812;2022-12-07T17:28:41;2.40;99.90
56332;DHT22;42237;53.340;6.812;2022-12-07T17:31:09;2.40;99.90
56332;DHT22;42237;53.340;6.812;2022-12-07T17:33:36;3.40;99.90
56332;DHT22;42237;53.340;6.812;2022-12-07T17:36:12;2.40;99.90
56332;DHT22;42237;53.340;6.812;2022-12-07T17:38:38;2.40;99.90
56332;DHT22;42237;53.340;6.812;2022-12-07T17:41:18;3.60;99.90
56332;DHT22;42237;53.340;6.812;2022-12-07T17:44:05;3.20;99.90
56332;DHT22;42237;53.340;6.812;2022-12-07T17:46:31;2.80;99.90
56332;DHT22;42237;53.340;6.812;2022-12-07T17:48:57;2.80;99.90
56332;DHT22;42237;53.340;6.812;2022-12-07T17:51:24;3.20;99.90
56332;DHT22;42237;53.340;6.812;2022-12-07T17:54:09;3.20;99.90
56332;DHT22;42237;53.340;6.812;2022-12-07T17:56:35;3.00;99.90
56332;DHT22;42237;53.340;6.812;2022-12-07T17:59:02;2.50;99.90
56332;DHT22;42237;53.340;6.812;2022-12-07T18:01:28;3.30;99.90
56332;DHT22;42237;53.340;6.812;2022-12-07T18:03:56;2.40;99.90
56332;DHT22;42237;53.340;6.812;2022-12-07T18:06:30;3.50;99.90
56332;DHT22;42237;53.340;6.812;2022-12-07T18:08:59;3.60;99.90
56332;DHT22;42237;53.340;6.812;2022-12-07T18:11:27;3.00;99.90
56332;DHT22;42237;53.340;6.812;2022-12-07T18:13:56;3.20;99.90
56332;DHT22;42237;53.340;6.812;2022-12-07T18:16:28;3.20;99.90
56332;DHT22;42237;53.340;6.812;2022-12-07T18:19:04;3.30;99.90
56332;DHT22;42237;53.340;6.812;2022-12-07T18:21:43;2.40;99.90
56332;DHT22;42237;53.340;6.812;2022-12-07T18:24:17;2.50;99.90